Terminal Aerodrome Forecast
Issued by NWS Northern Indiana

Home | Current Version | Previous Version | Text Only | Print | Product List | Glossary Off
Versions: 1 2 3 4 5 6 7 8 9 10 11 12 13

000
FTUS43 KIWX 211700
TAFFWA
TAF
KFWA 211720Z 2118/2218 28010KT P6SM SCT050 OVC080
     FM212000 28010KT P6SM FEW120
     FM220400 24006KT P6SM SCT100
     FM221000 30007KT P6SM BKN070
     FM221300 25008KT P6SM FEW050=

USA.gov is the U.S. government's official web portal to all federal, state and local government web resources and services.